createdAt,value
2019-03-10T00:01:40.318Z,2.30
2019-03-10T00:04:09.989Z,2.33
2019-03-10T00:06:39.293Z,2.80
2019-03-10T00:09:09.527Z,1.87
2019-03-10T00:11:38.850Z,2.43
2019-03-10T00:14:08.255Z,2.03
2019-03-10T00:16:37.569Z,3.37
2019-03-10T00:19:06.851Z,2.13
2019-03-10T00:21:36.181Z,1.70
2019-03-10T00:24:05.534Z,2.07
2019-03-10T00:26:35.000Z,1.70
2019-03-10T00:29:07.403Z,1.90
2019-03-10T00:31:36.706Z,2.40
2019-03-10T00:34:06.025Z,2.57
2019-03-10T00:36:35.355Z,2.77
2019-03-10T00:39:39.289Z,2.20
2019-03-10T00:42:43.187Z,2.27
2019-03-10T00:45:52.727Z,2.33
2019-03-10T00:49:05.261Z,2.63
2019-03-10T00:52:23.893Z,2.60
2019-03-10T00:54:53.175Z,2.77
2019-03-10T00:57:22.615Z,2.40
2019-03-10T00:59:52.168Z,2.30
2019-03-10T01:02:21.465Z,3.27
2019-03-10T01:04:51.197Z,2.90
2019-03-10T01:07:20.595Z,3.63
2019-03-10T01:09:49.908Z,3.47
2019-03-10T01:12:19.339Z,3.47
2019-03-10T01:14:48.687Z,3.50
2019-03-10T01:17:18.922Z,3.07
2019-03-10T01:19:48.325Z,3.70
2019-03-10T01:22:18.824Z,3.43
2019-03-10T01:24:48.144Z,4.13
2019-03-10T01:27:17.442Z,3.70
2019-03-10T01:29:46.747Z,3.77
2019-03-10T01:32:56.974Z,3.57
2019-03-10T01:35:35.313Z,3.37
2019-03-10T01:38:04.634Z,3.10
2019-03-10T01:40:34.143Z,4.03
2019-03-10T01:43:03.489Z,3.67
2019-03-10T01:45:32.890Z,3.67
2019-03-10T01:48:02.223Z,3.53
2019-03-10T01:50:31.950Z,3.73
2019-03-10T01:53:01.396Z,3.90
2019-03-10T01:55:30.787Z,4.63
2019-03-10T01:58:00.165Z,4.40
2019-03-10T02:00:29.529Z,4.17
2019-03-10T02:02:58.816Z,3.93
2019-03-10T02:05:28.239Z,4.90
2019-03-10T02:07:57.522Z,5.60
2019-03-10T02:10:28.033Z,4.77
2019-03-10T02:12:57.437Z,4.50
2019-03-10T02:15:27.622Z,4.20
2019-03-10T02:17:56.936Z,4.40
2019-03-10T02:20:26.225Z,4.50
2019-03-10T02:22:55.530Z,4.27
2019-03-10T02:25:24.824Z,4.57
2019-03-10T02:27:54.156Z,3.83
2019-03-10T02:30:23.639Z,4.20
2019-03-10T02:32:52.950Z,4.57
2019-03-10T02:35:22.316Z,4.10
2019-03-10T02:37:51.678Z,4.13
2019-03-10T02:40:21.022Z,4.93
2019-03-10T02:42:50.297Z,4.90
2019-03-10T02:45:19.629Z,3.87
2019-03-10T02:47:48.997Z,5.17
2019-03-10T02:50:19.718Z,3.77
2019-03-10T02:52:49.110Z,3.93
2019-03-10T02:55:18.506Z,3.63
2019-03-10T02:57:47.801Z,3.77
2019-03-10T03:00:17.168Z,3.83
2019-03-10T03:02:46.604Z,4.37
2019-03-10T03:05:15.968Z,4.53
2019-03-10T03:07:45.259Z,4.57
2019-03-10T03:10:14.811Z,4.30
2019-03-10T03:12:44.088Z,4.20
2019-03-10T03:15:13.762Z,4.40
2019-03-10T03:17:44.620Z,4.77
2019-03-10T03:20:14.061Z,4.20
2019-03-10T03:22:43.390Z,4.47
2019-03-10T03:25:12.723Z,3.83
2019-03-10T03:27:42.054Z,5.33
2019-03-10T03:30:12.725Z,3.87
2019-03-10T03:32:43.357Z,3.97
2019-03-10T03:35:39.461Z,4.43
2019-03-10T03:38:08.772Z,4.00
2019-03-10T03:40:38.852Z,4.40
2019-03-10T03:43:08.242Z,3.83
2019-03-10T03:45:37.560Z,4.93
2019-03-10T03:48:06.856Z,4.80
2019-03-10T03:50:36.173Z,4.20
2019-03-10T03:53:05.554Z,3.27
2019-03-10T03:55:35.003Z,4.33
2019-03-10T03:58:04.491Z,4.03
2019-03-10T04:00:33.825Z,3.97
2019-03-10T04:03:03.231Z,3.87
2019-03-10T04:05:32.642Z,3.93
2019-03-10T04:08:04.992Z,4.03
2019-03-10T04:10:34.464Z,4.53
2019-03-10T04:13:03.816Z,4.67
2019-03-10T04:15:33.321Z,3.93
2019-03-10T04:18:02.750Z,3.60
2019-03-10T04:20:32.110Z,4.37
2019-03-10T04:23:01.429Z,4.60
2019-03-10T04:25:30.827Z,3.50
2019-03-10T04:28:00.189Z,3.43
2019-03-10T04:30:29.605Z,3.73
2019-03-10T04:32:59.026Z,3.47
2019-03-10T04:35:28.325Z,3.57
2019-03-10T04:37:57.672Z,3.37
2019-03-10T04:40:27.127Z,3.50
2019-03-10T04:42:56.434Z,3.60
2019-03-10T04:45:25.768Z,3.70
2019-03-10T04:47:55.094Z,3.87
2019-03-10T04:50:24.405Z,3.03
2019-03-10T04:52:53.727Z,3.83
2019-03-10T04:55:32.205Z,3.10
2019-03-10T04:58:06.719Z,3.33
2019-03-10T05:00:37.491Z,3.67
2019-03-10T05:03:06.781Z,3.30
2019-03-10T05:05:36.064Z,2.97
2019-03-10T05:08:05.425Z,3.67
2019-03-10T05:10:34.705Z,3.47
2019-03-10T05:13:04.073Z,3.60
2019-03-10T05:15:33.358Z,2.93
2019-03-10T05:18:02.840Z,3.10
2019-03-10T05:20:32.113Z,3.97
2019-03-10T05:23:32.439Z,2.80
2019-03-10T05:26:01.795Z,4.03
2019-03-10T05:28:32.093Z,3.67
2019-03-10T05:31:01.565Z,3.43
2019-03-10T05:33:30.940Z,3.30
2019-03-10T05:36:00.269Z,3.63
2019-03-10T05:38:29.653Z,3.93
2019-03-10T05:40:59.119Z,3.33
2019-03-10T05:43:28.527Z,3.90
2019-03-10T05:45:57.821Z,3.93
2019-03-10T05:48:27.608Z,3.95
2019-03-10T05:50:56.897Z,3.90
2019-03-10T05:53:26.207Z,3.40
2019-03-10T05:55:55.499Z,3.93
2019-03-10T05:58:24.857Z,3.67
2019-03-10T06:00:54.260Z,3.23
2019-03-10T06:03:23.716Z,3.53
2019-03-10T06:05:53.156Z,3.07
2019-03-10T06:08:22.558Z,3.77
2019-03-10T06:10:51.961Z,3.40
2019-03-10T06:13:21.262Z,2.97
2019-03-10T06:15:50.699Z,3.63
2019-03-10T06:18:20.043Z,3.03
2019-03-10T06:20:49.494Z,2.50
2019-03-10T06:23:18.774Z,2.87
2019-03-10T06:25:50.179Z,2.97
2019-03-10T06:28:19.451Z,3.00
2019-03-10T06:30:48.851Z,3.37
2019-03-10T06:33:37.222Z,3.30
2019-03-10T06:36:06.652Z,2.70
2019-03-10T06:38:35.988Z,3.20
2019-03-10T06:41:05.343Z,3.23
2019-03-10T06:43:34.745Z,3.40
2019-03-10T06:46:04.163Z,3.27
2019-03-10T06:48:33.473Z,4.43
2019-03-10T06:51:02.728Z,4.40
2019-03-10T06:53:32.011Z,4.80
2019-03-10T06:56:03.357Z,4.97
2019-03-10T06:58:32.370Z,7.83
2019-03-10T07:01:01.766Z,4.67
2019-03-10T07:03:31.062Z,4.27
2019-03-10T07:06:00.416Z,3.90
2019-03-10T07:08:29.796Z,6.47
2019-03-10T07:10:59.095Z,5.50
2019-03-10T07:13:28.483Z,5.50
2019-03-10T07:15:57.896Z,4.97
2019-03-10T07:18:27.600Z,3.37
2019-03-10T07:20:57.848Z,3.37
2019-03-10T07:23:27.287Z,3.93
2019-03-10T07:26:06.266Z,3.30
2019-03-10T07:29:16.265Z,4.73
2019-03-10T07:32:16.447Z,10.47
2019-03-10T07:35:13.427Z,5.67
2019-03-10T07:37:54.695Z,4.47
2019-03-10T07:40:34.514Z,4.20
2019-03-10T07:43:21.126Z,4.00
2019-03-10T07:46:22.457Z,3.50
2019-03-10T07:49:09.667Z,4.17
2019-03-10T07:51:47.520Z,3.30
2019-03-10T07:54:26.214Z,3.73
2019-03-10T07:57:14.568Z,4.77
2019-03-10T08:00:18.380Z,3.40
2019-03-10T08:03:03.505Z,2.70
2019-03-10T08:05:41.820Z,3.07
2019-03-10T08:08:22.585Z,4.10
2019-03-10T08:11:20.144Z,3.57
2019-03-10T08:13:55.661Z,3.60
2019-03-10T08:16:49.869Z,3.97
2019-03-10T08:19:37.028Z,3.17
2019-03-10T08:22:31.441Z,3.60
2019-03-10T08:25:25.603Z,3.37
2019-03-10T08:28:05.061Z,4.00
2019-03-10T08:31:01.251Z,3.73
2019-03-10T08:33:55.706Z,3.80
2019-03-10T08:36:34.248Z,3.57
2019-03-10T08:39:15.015Z,3.77
2019-03-10T08:42:00.940Z,4.13
2019-03-10T08:44:48.140Z,4.00
2019-03-10T08:47:25.988Z,3.70
2019-03-10T08:50:00.716Z,3.83
2019-03-10T08:52:40.339Z,26.30
2019-03-10T08:55:37.896Z,7.13
2019-03-10T08:58:16.543Z,12.67
2019-03-10T09:01:10.757Z,5.57
2019-03-10T09:03:59.160Z,4.30
2019-03-10T09:06:50.670Z,4.73
2019-03-10T09:09:37.987Z,4.63
2019-03-10T09:12:35.374Z,5.10
2019-03-10T09:15:25.491Z,10.43
2019-03-10T09:18:19.732Z,67.00
2019-03-10T09:21:07.855Z,63.00
2019-03-10T09:24:14.413Z,17.73
2019-03-10T09:26:52.329Z,5.47
2019-03-10T09:29:46.709Z,3.67
2019-03-10T09:32:29.308Z,5.40
2019-03-10T09:35:03.702Z,10.23
2019-03-10T09:37:48.785Z,8.37
2019-03-10T09:40:35.902Z,8.40
2019-03-10T09:43:42.720Z,6.83
2019-03-10T09:46:21.515Z,4.43
2019-03-10T09:49:09.868Z,6.37
2019-03-10T09:52:07.125Z,6.47
2019-03-10T09:54:53.036Z,5.37
2019-03-10T09:57:40.414Z,4.87
2019-03-10T10:00:17.019Z,12.67
2019-03-10T10:03:14.672Z,6.10
2019-03-10T10:05:53.027Z,6.60
2019-03-10T10:08:50.469Z,6.70
2019-03-10T10:11:38.815Z,6.00
2019-03-10T10:14:13.739Z,5.67
2019-03-10T10:17:02.092Z,4.93
2019-03-10T10:19:49.154Z,4.80
2019-03-10T10:22:40.463Z,5.60
2019-03-10T10:25:18.064Z,5.50
2019-03-10T10:28:04.972Z,4.93
2019-03-10T10:30:53.317Z,4.50
2019-03-10T10:33:53.846Z,4.40
2019-03-10T10:36:45.077Z,21.37
2019-03-10T10:39:32.201Z,8.47
2019-03-10T10:42:32.887Z,12.83
2019-03-10T10:45:09.074Z,4.97
2019-03-10T10:47:50.900Z,7.37
2019-03-10T10:50:38.310Z,5.60
2019-03-10T10:53:25.631Z,4.97
2019-03-10T10:56:05.903Z,3.83
2019-03-10T10:58:57.324Z,9.43
2019-03-10T11:01:48.441Z,5.33
2019-03-10T11:04:43.112Z,3.97
2019-03-10T11:07:31.879Z,4.47
2019-03-10T11:10:19.076Z,4.13
2019-03-10T11:13:06.319Z,3.53
2019-03-10T11:16:01.894Z,3.27
2019-03-10T11:19:01.422Z,6.23
2019-03-10T11:21:36.839Z,5.70
2019-03-10T11:24:24.077Z,4.00
2019-03-10T11:27:02.531Z,4.47
2019-03-10T11:29:44.093Z,8.60
2019-03-10T11:32:32.414Z,4.60
2019-03-10T11:35:11.723Z,6.50
2019-03-10T11:37:58.966Z,4.03
2019-03-10T11:40:50.428Z,5.70
2019-03-10T11:43:40.384Z,15.83
2019-03-10T11:46:32.867Z,14.63
2019-03-10T11:49:24.493Z,5.53
2019-03-10T11:52:14.798Z,9.23
2019-03-10T11:55:02.154Z,10.30
2019-03-10T11:57:56.411Z,11.33
2019-03-10T12:00:48.142Z,5.83
2019-03-10T12:03:28.263Z,5.57
2019-03-10T12:06:19.752Z,11.23
2019-03-10T12:09:01.098Z,5.70
2019-03-10T12:11:30.588Z,6.60
2019-03-10T12:13:59.972Z,3.67
2019-03-10T12:16:31.085Z,3.23
2019-03-10T12:19:00.418Z,6.23
2019-03-10T12:21:29.762Z,3.50
2019-03-10T12:24:00.403Z,5.63
2019-03-10T12:26:29.820Z,5.20
2019-03-10T12:28:59.251Z,27.63
2019-03-10T12:31:28.710Z,19.27
2019-03-10T12:33:58.221Z,11.23
2019-03-10T12:36:27.701Z,6.90
2019-03-10T12:38:57.218Z,28.80
2019-03-10T12:41:26.587Z,8.47
2019-03-10T12:43:55.956Z,3.20
2019-03-10T12:46:25.295Z,32.30
2019-03-10T12:48:54.763Z,48.93
2019-03-10T12:51:24.294Z,20.50
2019-03-10T12:53:53.614Z,48.23
2019-03-10T12:56:23.088Z,4.22
2019-03-10T12:58:52.371Z,12.70
2019-03-10T13:01:21.760Z,9.33
2019-03-10T13:03:58.779Z,15.23
2019-03-10T13:06:22.476Z,7.70
2019-03-10T13:08:53.392Z,12.83
2019-03-10T13:11:22.858Z,15.13
2019-03-10T13:13:52.296Z,6.13
2019-03-10T13:16:21.587Z,4.90
2019-03-10T13:18:51.160Z,5.50
2019-03-10T13:21:20.577Z,4.83
2019-03-10T13:23:49.923Z,4.47
2019-03-10T13:26:19.293Z,8.40
2019-03-10T13:28:48.640Z,4.13
2019-03-10T13:31:18.095Z,3.07
2019-03-10T13:33:47.343Z,3.17
2019-03-10T13:36:16.658Z,3.13
2019-03-10T13:38:46.041Z,2.20
2019-03-10T13:41:15.372Z,2.50
2019-03-10T13:43:44.663Z,2.47
2019-03-10T13:46:15.976Z,1.70
2019-03-10T13:48:45.319Z,7.27
2019-03-10T13:51:14.679Z,9.50
2019-03-10T13:53:44.021Z,2.67
2019-03-10T13:56:13.344Z,3.00
2019-03-10T13:58:42.717Z,3.23
2019-03-10T14:01:12.153Z,3.20
2019-03-10T14:03:41.754Z,3.27
2019-03-10T14:06:11.106Z,3.50
2019-03-10T14:08:40.394Z,4.40
2019-03-10T14:11:09.743Z,6.57
2019-03-10T14:13:39.087Z,4.93
2019-03-10T14:16:08.503Z,4.97
2019-03-10T14:18:37.809Z,4.50
2019-03-10T14:21:07.126Z,5.17
2019-03-10T14:23:36.555Z,4.20
2019-03-10T14:26:06.091Z,10.23
2019-03-10T14:28:35.450Z,24.47
2019-03-10T14:31:04.856Z,7.40
2019-03-10T14:33:34.355Z,6.33
2019-03-10T14:36:03.715Z,12.70
2019-03-10T14:38:33.054Z,8.37
2019-03-10T14:41:02.516Z,6.40
2019-03-10T14:43:33.138Z,5.87
2019-03-10T14:46:02.520Z,5.70
2019-03-10T14:48:31.856Z,3.17
2019-03-10T14:51:01.233Z,6.77
2019-03-10T14:53:30.535Z,3.50
2019-03-10T14:55:59.929Z,3.13
2019-03-10T14:58:29.198Z,2.77
2019-03-10T15:00:58.609Z,3.10
2019-03-10T15:03:27.948Z,3.47
2019-03-10T15:05:57.343Z,5.87
2019-03-10T15:08:26.634Z,5.07
2019-03-10T15:10:56.066Z,3.40
2019-03-10T15:13:25.744Z,3.70
2019-03-10T15:15:55.189Z,4.17
2019-03-10T15:18:24.676Z,2.93
2019-03-10T15:20:53.965Z,3.93
2019-03-10T15:23:23.418Z,4.73
2019-03-10T15:25:52.741Z,4.27
2019-03-10T15:28:22.115Z,3.53
2019-03-10T15:30:51.445Z,5.03
2019-03-10T15:33:20.899Z,4.17
2019-03-10T15:35:50.192Z,3.50
2019-03-10T15:38:19.548Z,2.70
2019-03-10T15:40:48.870Z,2.10
2019-03-10T15:43:18.285Z,2.00
2019-03-10T15:45:47.563Z,3.93
2019-03-10T15:48:17.133Z,3.10
2019-03-10T15:50:46.436Z,1.87
2019-03-10T15:53:15.900Z,2.97
2019-03-10T15:55:45.236Z,2.20
2019-03-10T15:58:14.595Z,2.40
2019-03-10T16:00:44.020Z,2.50
2019-03-10T16:03:13.589Z,2.60
2019-03-10T16:05:42.867Z,2.70
2019-03-10T16:08:12.253Z,2.47
2019-03-10T16:10:41.609Z,2.50
2019-03-10T16:13:12.200Z,2.67
2019-03-10T16:15:41.570Z,2.90
2019-03-10T16:18:11.010Z,7.47
2019-03-10T16:20:40.357Z,3.00
2019-03-10T16:23:09.836Z,2.80
2019-03-10T16:25:39.263Z,3.10
2019-03-10T16:28:08.643Z,3.50
2019-03-10T16:30:37.964Z,3.93
2019-03-10T16:33:07.250Z,6.57
2019-03-10T16:35:36.640Z,6.60
2019-03-10T16:38:05.953Z,3.63
2019-03-10T16:40:35.344Z,4.60
2019-03-10T16:43:04.645Z,4.03
2019-03-10T16:45:34.050Z,6.93
2019-03-10T16:48:03.435Z,9.63
2019-03-10T16:50:32.751Z,8.70
2019-03-10T16:53:02.159Z,6.90
2019-03-10T16:55:31.462Z,7.77
2019-03-10T16:58:00.777Z,7.40
2019-03-10T17:00:30.230Z,4.80
2019-03-10T17:02:59.965Z,32.83
2019-03-10T17:05:29.277Z,26.80
2019-03-10T17:07:58.809Z,9.13
2019-03-10T17:10:28.410Z,9.53
2019-03-10T17:12:57.806Z,5.10
2019-03-10T17:15:27.326Z,4.92
2019-03-10T17:17:56.693Z,9.90
2019-03-10T17:20:26.014Z,4.67
2019-03-10T17:22:55.394Z,4.57
2019-03-10T17:25:24.836Z,4.43
2019-03-10T17:27:54.228Z,5.73
2019-03-10T17:30:23.826Z,15.03
2019-03-10T17:32:53.167Z,4.90
2019-03-10T17:35:22.566Z,5.87
2019-03-10T17:37:51.897Z,6.97
2019-03-10T17:40:21.309Z,5.20
2019-03-10T17:42:50.748Z,6.00
2019-03-10T17:45:20.035Z,6.73
2019-03-10T17:47:49.444Z,6.13
2019-03-10T17:50:19.032Z,5.17
2019-03-10T17:52:49.804Z,5.07
2019-03-10T17:55:19.229Z,4.77
2019-03-10T17:57:48.558Z,6.50
2019-03-10T18:00:19.667Z,11.67
2019-03-10T18:02:48.980Z,5.10
2019-03-10T18:05:18.367Z,17.43
2019-03-10T18:07:47.694Z,10.13
2019-03-10T18:10:17.157Z,18.77
2019-03-10T18:12:46.586Z,19.13
2019-03-10T18:15:16.079Z,12.87
2019-03-10T18:17:45.526Z,23.43
2019-03-10T18:20:15.570Z,9.65
2019-03-10T18:22:45.037Z,19.43
2019-03-10T18:25:14.638Z,27.17
2019-03-10T18:27:43.973Z,13.03
2019-03-10T18:30:15.508Z,7.33
2019-03-10T18:32:46.625Z,13.63
2019-03-10T18:35:16.075Z,32.10
2019-03-10T18:37:46.636Z,11.67
2019-03-10T18:40:17.910Z,15.83
2019-03-10T18:42:47.307Z,11.13
2019-03-10T18:45:17.657Z,12.40
2019-03-10T18:47:47.092Z,7.93
2019-03-10T18:50:17.162Z,13.93
2019-03-10T18:52:46.569Z,9.60
2019-03-10T18:55:16.754Z,10.13
2019-03-10T18:57:46.127Z,7.87
2019-03-10T19:00:17.985Z,8.47
2019-03-10T19:02:47.392Z,8.07
2019-03-10T19:05:16.870Z,7.67
2019-03-10T19:07:46.119Z,7.73
2019-03-10T19:10:15.580Z,7.10
2019-03-10T19:12:45.024Z,11.57
2019-03-10T19:15:15.982Z,10.30
2019-03-10T19:17:45.211Z,15.67
2019-03-10T19:20:14.654Z,13.80
2019-03-10T19:22:44.105Z,10.53
2019-03-10T19:25:13.632Z,11.53
2019-03-10T19:27:43.243Z,11.90
2019-03-10T19:30:14.411Z,13.83
2019-03-10T19:32:43.778Z,10.73
2019-03-10T19:35:13.358Z,11.03
2019-03-10T19:37:42.705Z,12.27
2019-03-10T19:40:13.710Z,12.10
2019-03-10T19:42:43.139Z,13.73
2019-03-10T19:45:13.797Z,14.90
2019-03-10T19:47:43.310Z,13.13
2019-03-10T19:50:13.538Z,13.57
2019-03-10T19:52:43.049Z,14.63
2019-03-10T19:55:12.761Z,11.97
2019-03-10T19:57:42.187Z,13.47
2019-03-10T20:00:13.819Z,10.77
2019-03-10T20:02:43.246Z,11.43
2019-03-10T20:05:12.988Z,11.60
2019-03-10T20:07:42.292Z,12.37
2019-03-10T20:10:13.812Z,12.70
2019-03-10T20:12:43.267Z,11.90
2019-03-10T20:15:14.553Z,10.57
2019-03-10T20:17:43.853Z,11.13
2019-03-10T20:20:14.507Z,10.67
2019-03-10T20:22:43.896Z,12.17
2019-03-10T20:25:13.571Z,10.23
2019-03-10T20:27:42.892Z,10.10
2019-03-10T20:30:14.769Z,10.90
2019-03-10T20:32:44.091Z,9.67
2019-03-10T20:35:13.595Z,10.23
2019-03-10T20:37:43.034Z,10.20
2019-03-10T20:40:13.689Z,11.67
2019-03-10T20:42:42.999Z,10.20
2019-03-10T20:45:12.515Z,10.90
2019-03-10T20:47:41.838Z,11.97
2019-03-10T20:50:12.287Z,14.87
2019-03-10T20:52:41.702Z,11.37
2019-03-10T20:55:11.113Z,11.37
2019-03-10T20:57:40.507Z,12.57
2019-03-10T21:00:13.962Z,12.53
2019-03-10T21:02:43.384Z,12.63
2019-03-10T21:05:12.765Z,11.47
2019-03-10T21:07:42.179Z,13.57
2019-03-10T21:10:12.937Z,12.83
2019-03-10T21:12:42.908Z,11.50
2019-03-10T21:15:14.438Z,12.47
2019-03-10T21:17:43.855Z,11.73
2019-03-10T21:20:14.721Z,11.60
2019-03-10T21:22:44.116Z,13.70
2019-03-10T21:25:18.427Z,13.20
2019-03-10T21:27:47.894Z,10.77
2019-03-10T21:30:19.392Z,12.53
2019-03-10T21:32:48.730Z,17.77
2019-03-10T21:35:18.404Z,14.47
2019-03-10T21:37:47.941Z,13.27
2019-03-10T21:40:19.133Z,16.57
2019-03-10T21:42:48.516Z,16.70
2019-03-10T21:45:17.992Z,15.93
2019-03-10T21:47:47.319Z,18.07
2019-03-10T21:50:16.715Z,21.03
2019-03-10T21:52:46.043Z,23.27
2019-03-10T21:55:15.457Z,19.43
2019-03-10T21:57:44.911Z,18.53
2019-03-10T22:00:14.991Z,18.10
2019-03-10T22:02:44.358Z,18.87
2019-03-10T22:05:14.110Z,17.27
2019-03-10T22:07:43.496Z,17.60
2019-03-10T22:10:13.048Z,16.80
2019-03-10T22:12:42.400Z,16.10
2019-03-10T22:15:13.736Z,15.90
2019-03-10T22:17:43.157Z,15.17
2019-03-10T22:20:13.664Z,13.97
2019-03-10T22:22:48.329Z,15.53
2019-03-10T22:25:14.258Z,14.37
2019-03-10T22:27:45.784Z,14.17
2019-03-10T22:30:15.900Z,13.67
2019-03-10T22:32:45.224Z,15.03
2019-03-10T22:35:14.610Z,14.33
2019-03-10T22:37:44.034Z,15.63
2019-03-10T22:40:13.443Z,17.83
2019-03-10T22:42:43.126Z,16.77
2019-03-10T22:45:13.234Z,15.03
2019-03-10T22:47:44.057Z,15.90
2019-03-10T22:50:13.668Z,15.13
2019-03-10T22:52:43.400Z,15.30
2019-03-10T22:55:12.876Z,15.53
2019-03-10T22:57:42.476Z,16.40
2019-03-10T23:00:14.701Z,14.97
2019-03-10T23:02:44.199Z,14.37
2019-03-10T23:05:13.582Z,13.50
2019-03-10T23:07:43.066Z,16.13
2019-03-10T23:10:13.163Z,13.20
2019-03-10T23:12:42.479Z,11.97
2019-03-10T23:15:12.185Z,12.20
2019-03-10T23:17:41.657Z,12.47
2019-03-10T23:20:12.645Z,14.90
2019-03-10T23:22:42.007Z,12.37
2019-03-10T23:25:11.547Z,12.80
2019-03-10T23:27:41.091Z,13.53
2019-03-10T23:30:11.986Z,13.77
2019-03-10T23:32:41.331Z,13.77
2019-03-10T23:35:10.969Z,14.23
2019-03-10T23:37:40.297Z,14.40
2019-03-10T23:40:10.663Z,15.57
2019-03-10T23:42:40.044Z,15.57
2019-03-10T23:45:10.168Z,13.13
2019-03-10T23:47:39.571Z,14.53
2019-03-10T23:50:09.656Z,14.53
2019-03-10T23:52:39.157Z,14.50
2019-03-10T23:55:09.480Z,13.83
2019-03-10T23:57:38.933Z,13.30
